Latest Weather Observations for Bougainville Reef

IDQ60801

Issued at 10:05 pm EST Thursday 30 October 2014 (issued every 30 minutes, with the page automatically refreshed every 10 minutes)

About weather observations | Map of weather stations | Latest weather observations for QLD | Other Formats
Station Details ID: 200840 Name: BOUGAINVILLE REEF Lat: -15.49 Lon: 147.12 Height: 0.0 m
Data from the previous 72 hours. | See also: Recent months for locations in Queensland
Date/Time
EST
Temp
°C
App
Temp
°C
Dew
Point
Rel
Hum
%
Delta-T
°C
Wind Press
QNH
hPa
Press
MSL
hPa
Rain
since 9 am
mm
Dir
 
Spd
km/h
Gust
km/h
Spd
kts
Gust
kts
30/10:00pm 25.2 - - - - ESE 33 39 18 21 1013.1 1013.0 -
30/09:30pm 25.3 - - - - ESE 32 39 17 21 1012.8 - -
30/09:00pm 25.3 - - - - ESE 30 32 16 17 1012.9 1012.6 -
30/08:30pm 25.3 - - - - NE 26 35 14 19 1012.5 - -
30/08:00pm 25.3 - - - - E 30 33 16 18 1012.3 1012.1 -
30/07:30pm 25.2 - - - - SE 32 37 17 20 1012.0 - -
30/07:00pm 25.1 - - - - ESE 28 35 15 19 1011.8 1011.6 -
30/06:30pm 25.4 - - - - ESE 28 35 15 19 1011.5 - -
30/06:00pm 25.2 - - - - SE 26 32 14 17 1011.2 1011.1 -
30/05:30pm 25.4 - - - - SE 24 32 13 17 1011.2 - -
30/05:00pm 25.4 - - - - SSE 20 28 11 15 1011.2 1011.0 -
30/04:30pm 25.3 - - - - SSE 20 28 11 15 1011.1 - -
30/04:00pm 25.5 - - - - SSE 19 28 10 15 1010.9 1010.7 -
30/03:30pm 25.1 - - - - SSE 19 28 10 15 1010.9 - -
30/03:00pm 25.3 - - - - SSE 19 26 10 14 1011.1 1011.1 -
30/02:30pm 25.1 - - - - SE 19 26 10 14 1011.5 - -
30/02:00pm 25.2 - - - - SSE 15 22 8 12 1011.7 1011.7 -
30/01:30pm 25.3 - - - - SSE 15 20 8 11 1012.0 - -
30/01:00pm 25.0 - - - - SSE 17 22 9 12 1012.4 1012.5 -
30/12:30pm 25.0 - - - - SSE 15 20 8 11 1012.9 - -
30/12:00pm 25.0 - - - - S 20 26 11 14 1013.4 1013.4 -
30/11:30am 25.1 - - - - SSE 17 22 9 12 1013.8 - -
30/11:00am 25.3 - - - - SSE 17 24 9 13 1014.0 1014.0 -
30/10:30am 25.3 - - - - SE 17 22 9 12 1014.2 - -
30/10:00am 25.2 - - - - ESE 17 20 9 11 1014.2 1014.2 -
30/09:30am 25.3 - - - - E 19 20 10 11 1014.1 - -
30/09:00am 25.4 - - - - E 19 24 10 13 1014.2 1014.0 -
30/08:30am 25.1 - - - - E 20 24 11 13 1014.2 - -
30/08:00am 25.1 - - - - E 22 24 12 13 1013.9 1013.7 -
30/07:30am 25.1 - - - - ESE 24 28 13 15 1013.6 - -
30/07:00am 24.7 - - - - ESE 24 28 13 15 1013.4 1013.2 -
30/06:30am 24.8 - - - - ESE 19 20 10 11 1013.0 - -
30/06:00am 24.8 - - - - E 20 24 11 13 1012.5 1012.3 -
30/05:30am 24.5 - - - - E 20 24 11 13 1012.3 - -
30/05:00am 24.7 - - - - ENE 24 28 13 15 1011.8 1011.6 -
30/04:30am 24.6 - - - - ENE 20 24 11 13 1011.8 - -
30/04:00am 24.6 - - - - E 19 20 10 11 1011.7 1011.7 -
30/03:30am 24.6 - - - - E 20 24 11 13 1011.8 - -
30/03:00am 24.6 - - - - E 20 22 11 12 1011.8 1011.8 -
30/02:30am 24.7 - - - - E 22 26 12 14 1011.9 - -
30/02:00am 24.6 - - - - E 20 28 11 15 1011.9 1011.9 -
30/01:30am 24.6 - - - - E 20 24 11 13 1012.2 - -
30/01:00am 24.8 - - - - E 26 26 14 14 1012.5 1012.4 -
30/12:30am 24.7 - - - - E 22 28 12 15 1012.7 - -
30/12:00am 24.7 - - - - E 24 30 13 16 1012.9 1013.0 -
 
Date/Time
EST
Temp
°C
App
Temp
°C
Dew
Point
Rel
Hum
%
Delta-T
°C
Wind Press
QNH
hPa
Press
MSL
hPa
Rain
since 9 am
mm
Dir
 
Spd
km/h
Gust
km/h
Spd
kts
Gust
kts
29/11:30pm 24.9 - - - - ESE 28 30 15 16 1013.2 - -
29/11:00pm 24.7 - - - - E 26 30 14 16 1013.6 1013.6 -
29/10:30pm 24.9 - - - - E 26 30 14 16 1013.8 - -
29/10:00pm 24.9 - - - - ESE 26 33 14 18 1014.0 1013.9 -
29/09:30pm 25.0 - - - - ESE 26 30 14 16 1013.8 - -
29/09:00pm 25.0 - - - - ESE 26 30 14 16 1013.6 1013.4 -
29/08:30pm 25.0 - - - - ESE 26 28 14 15 1013.4 - -
29/08:00pm 25.0 - - - - ESE 22 28 12 15 1013.3 1013.1 -
29/07:30pm 25.1 - - - - ESE 22 26 12 14 1013.1 - -
29/07:00pm 25.3 - - - - ESE 20 26 11 14 1012.8 1012.5 -
29/06:30pm 25.1 - - - - SE 19 24 10 13 1012.5 - -
29/06:00pm 25.1 - - - - SE 19 24 10 13 1012.4 1012.2 -
29/05:30pm 25.5 - - - - SSE 15 20 8 11 1012.2 - -
29/05:00pm 25.2 - - - - SE 17 24 9 13 1012.1 1011.9 -
29/04:30pm 25.1 - - - - SSE 17 22 9 12 1012.0 - -
29/04:00pm 25.3 - - - - SSE 15 20 8 11 1012.0 1011.9 -
29/03:30pm 25.4 - - - - SSE 15 20 8 11 1011.9 - -
29/03:00pm 25.2 - - - - SSE 15 24 8 13 1011.9 1011.9 -
29/02:30pm 25.1 - - - - SSE 15 20 8 11 1012.1 - -
29/02:00pm 25.2 - - - - SE 13 17 7 9 1012.4 1012.3 -
29/01:30pm 25.2 - - - - SE 13 20 7 11 1012.5 - -
29/01:00pm 25.0 - - - - ESE 17 20 9 11 1012.8 1012.9 -
29/12:30pm 25.0 - - - - ESE 17 20 9 11 1013.2 - -
29/12:00pm 25.0 - - - - ESE 19 20 10 11 1013.6 1013.7 -
29/11:30am 25.1 - - - - ESE 19 22 10 12 1013.8 - -
29/11:00am 25.0 - - - - ESE 20 24 11 13 1014.1 1014.0 -
29/10:30am 25.3 - - - - ESE 20 24 11 13 1014.1 - -
29/10:00am 25.2 - - - - ESE 20 24 11 13 1014.3 1014.3 -
29/09:30am 25.1 - - - - ESE 22 26 12 14 1014.3 - -
29/09:00am 25.1 - - - - ESE 17 22 9 12 1014.3 1014.3 -
29/08:30am 25.3 - - - - ESE 19 22 10 12 1014.3 - -
29/08:00am 25.5 - - - - E 19 20 10 11 1014.1 1014.0 -
29/07:30am 25.4 - - - - E 17 20 9 11 1014.0 - -
29/07:00am 25.0 - - - - E 17 19 9 10 1013.6 1013.3 -
29/06:30am 25.0 - - - - E 15 19 8 10 1013.2 - -
29/06:00am 24.6 - - - - E 19 20 10 11 1012.7 1012.5 -
29/05:30am 24.5 - - - - E 19 20 10 11 1012.5 - -
29/05:00am 24.4 - - - - E 19 20 10 11 1012.0 1011.9 -
29/04:30am 24.4 - - - - E 17 20 9 11 1012.0 - -
29/04:00am 24.3 - - - - E 19 22 10 12 1011.8 1011.5 -
29/03:30am 24.6 - - - - E 17 22 9 12 1011.5 - -
29/03:00am 24.4 - - - - ESE 17 22 9 12 1011.4 1011.3 -
29/02:30am 24.3 - - - - E 15 19 8 10 1011.4 - -
29/02:00am 24.7 - - - - ESE 17 20 9 11 1011.5 1011.5 -
29/01:30am 24.4 - - - - E 19 20 10 11 1011.8 - -
29/01:00am 24.6 - - - - E 19 - 10 - - 1012.1 -
29/12:30am 24.6 - - - - ESE 19 22 10 12 1012.5 - -
29/12:00am 24.6 - - - - E 17 22 9 12 1012.9 1013.0 -
 
Date/Time
EST
Temp
°C
App
Temp
°C
Dew
Point
Rel
Hum
%
Delta-T
°C
Wind Press
QNH
hPa
Press
MSL
hPa
Rain
since 9 am
mm
Dir
 
Spd
km/h
Gust
km/h
Spd
kts
Gust
kts
28/11:30pm 24.7 - - - - E 19 22 10 12 1013.3 - -
28/11:00pm 24.8 - - - - E 20 24 11 13 1013.7 1013.6 -
28/10:30pm 24.7 - - - - E 22 26 12 14 1013.9 - -
28/10:00pm 24.6 - - - - E 20 24 11 13 1014.2 1014.1 -
28/09:30pm 24.8 - - - - ESE 20 26 11 14 1014.0 - -
28/09:00pm 24.7 - - - - ESE 19 26 10 14 1014.2 1014.0 -
28/08:30pm 24.7 - - - - ESE 19 24 10 13 1013.9 - -
28/08:00pm 24.8 - - - - SE 17 22 9 12 1013.6 1013.4 -
28/07:30pm 24.7 - - - - SE 17 24 9 13 1013.3 - -
28/07:00pm 24.7 - - - - SE 20 24 11 13 1013.0 1012.9 -
28/06:30pm 24.7 - - - - SSE 15 24 8 13 1012.8 - -
28/06:00pm 24.8 - - - - SSE 13 20 7 11 1012.5 1012.4 -
28/05:30pm 24.7 - - - - SE 15 20 8 11 1012.4 - -
28/05:00pm 24.8 - - - - SE 15 17 8 9 1012.0 1011.8 -
28/04:30pm 24.9 - - - - SSE 13 19 7 10 1011.8 - -
28/04:00pm 24.7 - - - - SSE 15 19 8 10 1011.8 1011.7 -
28/03:30pm 24.8 - - - - SSE 15 20 8 11 1011.9 - -
28/03:00pm 24.6 - - - - SSE 17 20 9 11 1012.1 1012.1 -
28/02:30pm 24.8 - - - - SSE 15 20 8 11 1012.4 - -
28/02:00pm 24.6 - - - - SSE 13 22 7 12 1012.5 1012.4 -
28/01:30pm 24.6 - - - - SSE 13 20 7 11 1012.7 - -
28/01:00pm 24.6 - - - - SSE 13 19 7 10 1012.9 1012.9 -
28/12:30pm 24.6 - - - - SSE 15 20 8 11 1013.2 - -
28/12:00pm 24.6 - - - - SE 13 19 7 10 1013.5 1013.5 -
28/11:30am 24.5 - - - - ESE 13 17 7 9 1014.0 - -
28/11:00am 24.6 - - - - ESE 15 19 8 10 1014.0 1013.9 -
28/10:30am 24.7 - - - - ESE 15 17 8 9 1014.1 - -
28/10:00am 24.7 - - - - ESE 15 19 8 10 1014.3 1014.3 -
28/09:30am 24.8 - - - - ESE 15 17 8 9 1014.7 - -
28/09:00am 24.9 - - - - SE 15 20 8 11 1014.7 1014.7 -
28/08:30am 24.7 - - - - ESE 15 19 8 10 1014.7 - -
28/08:00am 24.5 - - - - SE 19 20 10 11 1014.5 1014.2 -
28/07:30am 24.7 - - - - SE 19 24 10 13 1014.2 - -
28/07:00am 24.6 - - - - SSE 17 22 9 12 1014.1 1013.9 -
28/06:30am 24.5 - - - - SE 17 20 9 11 1013.9 - -
28/06:00am 24.3 - - - - ESE 15 22 8 12 1013.7 1013.6 -
28/05:30am 24.1 - - - - ESE 15 19 8 10 1013.5 - -
28/05:00am 24.3 - - - - ESE 15 20 8 11 1013.2 1013.1 -
28/04:30am 24.1 - - - - ESE 19 22 10 12 1013.0 - -
28/04:00am 24.4 - - - - ESE 19 22 10 12 1012.7 1012.5 -
28/03:30am 24.2 - - - - ESE 19 22 10 12 1012.6 - -
28/03:00am 24.2 - - - - E 20 24 11 13 1012.3 1012.2 -
28/02:30am 24.4 - - - - E 22 24 12 13 1012.3 - -
28/02:00am 24.4 - - - - E 22 28 12 15 1012.4 1012.4 -
28/01:30am 24.4 - - - - E 22 26 12 14 1012.7 - -
28/01:00am 24.4 - - - - E 22 26 12 14 1013.0 1013.0 -
28/12:30am 24.4 - - - - E 22 28 12 15 1013.4 - -
28/12:00am 24.6 - - - - E 22 28 12 15 1013.7 1013.7 -
 
Date/Time
EST
Temp
°C
App
Temp
°C
Dew
Point
Rel
Hum
%
Delta-T
°C
Wind Press
QNH
hPa
Press
MSL
hPa
Rain
since 9 am
mm
Dir
 
Spd
km/h
Gust
km/h
Spd
kts
Gust
kts
27/11:30pm 24.6 - - - - ESE 20 28 11 15 1014.0 - -
27/11:00pm 24.5 - - - - ESE 22 26 12 14 1014.2 1014.2 -
27/10:30pm 24.6 - - - - ESE 20 28 11 15 1014.4 - -

Other Formats:

Comma delimited format used in spreadsheet applications
http://www.bom.gov.au/fwo/IDQ60801/IDQ60801.95288.axf

JavaScript Object Notation format (JSON) in row-major order
http://www.bom.gov.au/fwo/IDQ60801/IDQ60801.95288.json